ROMMA est une association bénévole à but non lucratif. Votre soutien est indispensable : ADHERER à ROMMA ou FAIRE un DON

Eygliers - (05, Hautes-Alpes)

Guillestrois (965 m)   Longitude: 6° 38' 04" E   Latitude: 44° 40' 37" N Station partenaire n°53
 

Détail journalier du     <<     >>

Température Precipitation Humidité Vent Dir Rafale Dir. rafale Ensol.
Heure (°C) (mm) (%) (km/h) (km/h) (min)
01:00 -1.10933ENE11SSO0
02:00 -0.40905ESE15ESE0
03:00 -1.30923E11ENE0
04:00 -1.70932NE10NE0
05:00 -1.30923E13NE0
06:00 -0.90885E15ESE0
07:00 3.10644N15ENE0
08:00 4.80567ENE24E0
09:00 1.40783N11E50
10:00 2.90734SSE13ESE60
11:00 4.80686S16S60
12:00 7.90563SSE10SSO50
13:00 10.60388O26NO60
14:00 9.404813SO29SO60
15:00 10.103614OSO34NO60
16:00 8.304013NO31N60
17:00 7.103813N42NNO20
18:00 5.204710N29ESE0
19:00 3.505612ESE24ESE0
20:00 2.20615ENE13ENE0
21:00 1.40653ENE13E0
22:00 1.20654NE10NNE0
23:00 0.30693ENE13ESE0
minuit -0.90744ESE13NNE0

Graphique du 27-11-2018

 

Serveur OMMA